Time;durP1;ratioP1;P1;durP2;ratioP2;P2;SDS_P1;SDS_P2;PMS_P1;PMS_P2;Temp;Humidity;BMP_temperature;BMP_pressure;BME280_temperature;BME280_humidity;BME280_pressure;Samples;Min_cycle;Max_cycle;Signal;HPM_P1;HPM_P2
2022/08/10 00:02:42;;;;;;;7.00;6.70;;;;;;;19.20;100.00;101272.09;5055280;28;20044;-66
2022/08/10 00:05:08;;;;;;;7.20;6.90;;;;;;;19.18;100.00;101276.88;5054624;28;20400;-66
2022/08/10 00:07:33;;;;;;;7.50;7.20;;;;;;;19.12;100.00;101274.19;5054418;28;20021;-66
2022/08/10 00:09:59;;;;;;;7.30;7.00;;;;;;;19.11;100.00;101269.88;5054194;28;20025;-67
2022/08/10 00:12:24;;;;;;;8.25;7.85;;;;;;;19.08;100.00;101263.03;5053414;28;20429;-66
2022/08/10 00:14:50;;;;;;;7.40;7.10;;;;;;;19.01;100.00;101265.75;5054353;28;20025;-66
2022/08/10 00:17:15;;;;;;;7.57;7.28;;;;;;;19.03;100.00;101258.31;5054410;28;20020;-66
2022/08/10 00:19:41;;;;;;;7.50;7.20;;;;;;;19.00;100.00;101266.78;5059233;28;20134;-66
2022/08/10 00:22:06;;;;;;;7.30;7.00;;;;;;;18.97;100.00;101263.69;5053957;28;20123;-66
2022/08/10 00:24:32;;;;;;;7.30;7.00;;;;;;;18.94;100.00;101266.81;5054393;28;20486;-65
2022/08/10 00:26:57;;;;;;;7.10;6.80;;;;;;;18.86;100.00;101261.66;5054129;28;20025;-66
2022/08/10 00:29:22;;;;;;;7.50;7.20;;;;;;;18.91;100.00;101268.06;5054262;28;20066;-65
2022/08/10 00:31:48;;;;;;;7.40;7.10;;;;;;;18.87;100.00;101274.06;5054338;28;20029;-66
2022/08/10 00:34:14;;;;;;;7.40;7.10;;;;;;;18.91;100.00;101276.13;5053865;28;20032;-66
2022/08/10 00:36:39;;;;;;;7.22;6.93;;;;;;;18.89;100.00;101272.00;5054529;28;20025;-66
2022/08/10 00:39:05;;;;;;;7.60;7.30;;;;;;;18.87;100.00;101266.00;5068959;28;20074;-66
2022/08/10 00:41:30;;;;;;;7.38;7.07;;;;;;;18.75;100.00;101263.16;5053565;28;20430;-66
2022/08/10 00:43:56;;;;;;;7.25;6.95;;;;;;;18.79;100.00;101250.91;5053589;28;20049;-66
2022/08/10 00:46:21;;;;;;;7.55;7.25;;;;;;;18.88;100.00;101262.28;5053812;28;20028;-65
2022/08/10 00:48:47;;;;;;;7.38;7.07;;;;;;;18.79;100.00;101250.91;5053580;28;20130;-65
2022/08/10 00:51:13;;;;;;;7.57;7.28;;;;;;;18.83;100.00;101257.53;5046005;28;20582;-65
2022/08/10 00:53:38;;;;;;;7.72;7.43;;;;;;;18.81;100.00;101259.63;5057861;28;20025;-66
2022/08/10 00:56:04;;;;;;;7.47;7.18;;;;;;;18.79;100.00;101256.28;5053134;28;20029;-66
2022/08/10 00:58:30;;;;;;;7.20;6.90;;;;;;;18.68;100.00;101249.72;5053603;28;20025;-65
2022/08/10 01:00:55;;;;;;;7.30;7.00;;;;;;;18.63;100.00;101254.03;5053625;28;20017;-66
2022/08/10 01:03:21;;;;;;;7.70;7.40;;;;;;;18.61;100.00;101240.00;5052952;28;20119;-66
2022/08/10 01:06:24;;;;;;;7.30;7.00;;;;;;;18.67;100.00;101245.38;5053456;28;20032;-66
2022/08/10 01:09:27;;;;;;;7.18;6.88;;;;;;;18.63;100.00;101240.59;5053756;28;20512;-66
2022/08/10 01:11:59;;;;;;;7.13;6.82;;;;;;;18.62;100.00;101236.25;5054491;28;20048;-66
2022/08/10 01:14:36;;;;;;;7.40;7.10;;;;;;;18.56;100.00;101237.09;5053025;28;20494;-66
2022/08/10 01:17:39;;;;;;;7.40;7.10;;;;;;;18.61;100.00;101242.69;5053187;28;20135;-66
2022/08/10 01:20:23;;;;;;;7.43;7.13;;;;;;;18.65;100.00;101243.91;5043452;28;20017;-66
2022/08/10 01:23:03;;;;;;;7.30;7.00;;;;;;;18.52;100.00;101242.06;5052972;28;20040;-66
2022/08/10 01:25:35;;;;;;;11.70;11.10;;;;;;;18.53;100.00;101240.22;5062506;28;20415;-66
2022/08/10 01:28:32;;;;;;;7.30;7.00;;;;;;;18.53;100.00;101242.91;5053497;28;20025;-66
2022/08/10 01:31:00;;;;;;;7.30;7.00;;;;;;;18.44;100.00;101234.25;5052777;28;20024;-67
2022/08/10 01:33:31;;;;;;;7.40;7.10;;;;;;;18.46;100.00;101241.06;5052859;28;20028;-66
2022/08/10 01:35:58;;;;;;;7.40;7.10;;;;;;;18.40;100.00;101233.81;5068376;28;20087;-67
2022/08/10 01:38:27;;;;;;;7.30;7.00;;;;;;;18.44;100.00;101236.94;5052857;28;20021;-66
2022/08/10 01:41:04;;;;;;;7.25;6.95;;;;;;;18.42;100.00;101247.03;5052543;28;20017;-66
2022/08/10 01:43:32;;;;;;;7.88;7.57;;;;;;;18.43;100.00;101235.25;5054391;28;20044;-66
2022/08/10 01:46:01;;;;;;;7.10;6.80;;;;;;;18.36;100.00;101229.91;5053381;28;20029;-66
2022/08/10 01:48:33;;;;;;;7.80;7.50;;;;;;;18.31;100.00;101229.72;5051244;28;20051;-66
2022/08/10 01:51:13;;;;;;;7.40;7.10;;;;;;;18.29;100.00;101229.09;5052441;28;20029;-66
2022/08/10 01:53:50;;;;;;;7.50;7.20;;;;;;;18.27;100.00;101231.13;5052366;28;20025;-66
2022/08/10 01:56:18;;;;;;;7.70;7.40;;;;;;;18.33;100.00;101221.44;5052510;28;20230;-65
2022/08/10 01:58:48;;;;;;;7.10;6.80;;;;;;;18.27;100.00;101222.25;5052717;28;20485;-66
2022/08/10 02:01:17;;;;;;;7.25;6.95;;;;;;;18.12;100.00;101233.22;5052968;28;20035;-65
2022/08/10 02:03:46;;;;;;;7.65;7.35;;;;;;;18.08;100.00;101235.50;5051559;28;20053;-66
2022/08/10 02:06:13;;;;;;;7.30;7.00;;;;;;;18.14;100.00;101231.16;5052429;28;20032;-67
2022/08/10 02:08:41;;;;;;;7.32;7.03;;;;;;;18.17;100.00;101233.44;5059869;28;20029;-66
2022/08/10 02:11:10;;;;;;;7.20;6.90;;;;;;;18.14;100.00;101232.00;5072412;28;20123;-66
2022/08/10 02:13:37;;;;;;;7.00;6.70;;;;;;;18.14;100.00;101233.84;5052289;28;20546;-66
2022/08/10 02:16:05;;;;;;;7.40;7.10;;;;;;;18.15;100.00;101230.97;5052031;28;20540;-66
2022/08/10 02:18:32;;;;;;;7.43;7.13;;;;;;;18.09;100.00;101237.16;5058300;28;20024;-66
2022/08/10 02:21:05;;;;;;;7.10;6.80;;;;;;;18.11;100.00;101235.06;5051813;28;20025;-66
2022/08/10 02:23:33;;;;;;;7.40;7.10;;;;;;;18.08;100.00;101234.69;5064143;28;20033;-65
2022/08/10 02:26:00;;;;;;;7.13;6.82;;;;;;;18.11;100.00;101234.25;5052212;28;20413;-65
2022/08/10 02:28:29;;;;;;;7.60;7.30;;;;;;;18.00;100.00;101226.84;5051917;28;20036;-67
2022/08/10 02:30:58;;;;;;;7.70;7.40;;;;;;;18.06;100.00;101226.81;5051601;28;20025;-65
2022/08/10 02:33:25;;;;;;;7.80;7.50;;;;;;;17.98;100.00;101223.50;5051795;28;20024;-66
2022/08/10 02:35:53;;;;;;;7.45;7.15;;;;;;;18.04;100.00;101231.56;5052583;28;20074;-65
2022/08/10 02:38:24;;;;;;;7.63;7.32;;;;;;;18.06;100.00;101228.66;5057292;28;20055;-65
2022/08/10 02:40:56;;;;;;;7.20;6.90;;;;;;;18.03;100.00;101227.22;5051611;28;20418;-66
2022/08/10 02:43:34;;;;;;;7.50;7.20;;;;;;;18.08;100.00;101234.69;5051355;28;20049;-65
2022/08/10 02:46:05;;;;;;;7.40;7.10;;;;;;;18.09;100.00;101236.34;5051763;28;20028;-67
2022/08/10 02:48:45;;;;;;;7.50;7.20;;;;;;;18.08;100.00;101237.38;5049182;28;20033;-66
2022/08/10 02:51:38;;;;;;;7.22;6.93;;;;;;;18.07;100.00;101244.59;5051141;28;20063;-67
2022/08/10 02:54:07;;;;;;;7.32;7.03;;;;;;;18.08;100.00;101240.06;5061228;28;20024;-66
2022/08/10 02:56:51;;;;;;;7.50;7.20;;;;;;;18.11;100.00;101245.00;5051896;28;20053;-66
2022/08/10 02:59:54;;;;;;;7.47;7.18;;;;;;;18.08;100.00;101226.63;5051478;28;20098;-66
2022/08/10 03:02:42;;;;;;;7.32;7.03;;;;;;;18.07;100.00;101238.41;5036587;28;20491;-66
2022/08/10 03:05:09;;;;;;;7.20;6.90;;;;;;;18.16;100.00;101235.28;5064100;28;20064;-67
2022/08/10 03:08:04;;;;;;;7.20;6.90;;;;;;;18.13;100.00;101242.91;5051713;28;20481;-67
2022/08/10 03:10:32;;;;;;;7.40;7.10;;;;;;;18.16;100.00;101246.03;5048204;28;20029;-66
2022/08/10 03:13:06;;;;;;;7.40;7.10;;;;;;;18.14;100.00;101244.56;5050992;28;20039;-67
2022/08/10 03:15:35;;;;;;;7.37;7.07;;;;;;;18.14;100.00;101240.06;5051224;28;20024;-66
2022/08/10 03:18:02;;;;;;;7.38;7.07;;;;;;;18.22;100.00;101233.66;5049896;28;20052;-65
2022/08/10 03:20:32;;;;;;;7.20;6.90;;;;;;;18.17;100.00;101239.63;5051405;28;20021;-67
2022/08/10 03:23:00;;;;;;;7.68;7.38;;;;;;;18.16;100.00;101240.66;5051579;28;20029;-66
2022/08/10 03:25:27;;;;;;;7.53;7.22;;;;;;;18.18;100.00;101237.78;5051964;28;20048;-67
2022/08/10 03:27:53;;;;;;;7.95;7.65;;;;;;;18.27;100.00;101241.06;5051869;28;20463;-66
2022/08/10 03:30:19;;;;;;;7.60;7.30;;;;;;;18.24;100.00;101247.69;5050946;28;20102;-66
2022/08/10 03:32:46;;;;;;;7.60;7.30;;;;;;;18.31;100.00;101245.00;5051150;28;20061;-66
2022/08/10 03:35:13;;;;;;;7.40;7.10;;;;;;;18.28;100.00;101246.22;5051552;28;20051;-66
2022/08/10 03:37:39;;;;;;;7.43;7.13;;;;;;;18.36;100.00;101247.88;5051331;28;20104;-67
2022/08/10 03:40:06;;;;;;;7.35;7.05;;;;;;;18.34;100.00;101249.94;5050029;28;20454;-67
2022/08/10 03:42:34;;;;;;;7.60;7.30;;;;;;;18.20;100.00;101246.44;5050976;28;20052;-66
2022/08/10 03:45:03;;;;;;;7.35;7.05;;;;;;;18.34;100.00;101252.63;5057744;28;20036;-66
2022/08/10 03:47:29;;;;;;;7.30;7.00;;;;;;;18.38;100.00;101251.19;5049363;28;20024;-66
2022/08/10 03:49:57;;;;;;;7.50;7.20;;;;;;;18.44;100.00;101251.19;5051090;28;20033;-66
2022/08/10 03:52:23;;;;;;;7.50;7.20;;;;;;;18.40;100.00;101249.13;5050721;28;20503;-66
2022/08/10 03:54:52;;;;;;;7.35;7.05;;;;;;;18.51;100.00;101243.13;5050947;28;20040;-66
2022/08/10 03:57:19;;;;;;;7.35;7.05;;;;;;;18.47;100.00;101252.63;5050930;28;20032;-66
2022/08/10 03:59:45;;;;;;;7.55;7.25;;;;;;;18.60;100.00;101252.59;5051583;28;20380;-66
2022/08/10 04:02:11;;;;;;;7.85;7.55;;;;;;;18.56;100.00;101247.84;5042258;28;20025;-66
2022/08/10 04:04:36;;;;;;;7.32;7.03;;;;;;;18.56;100.00;101248.66;5054242;28;20041;-66
2022/08/10 04:07:03;;;;;;;7.45;7.15;;;;;;;18.53;100.00;101241.03;5082829;28;20032;-67
2022/08/10 04:09:31;;;;;;;7.30;7.00;;;;;;;18.55;100.00;101247.03;5054477;28;20136;-67
2022/08/10 04:11:57;;;;;;;7.30;7.00;;;;;;;18.55;100.00;101252.41;5053134;28;20033;-66
2022/08/10 04:14:22;;;;;;;7.63;7.32;;;;;;;18.55;100.00;101246.19;5053950;28;20021;-68
2022/08/10 04:16:48;;;;;;;7.60;7.30;;;;;;;18.66;100.00;101249.13;5054120;28;20078;-66
2022/08/10 04:19:17;;;;;;;8.25;7.85;;;;;;;18.53;100.00;101254.47;5054186;28;20029;-66
2022/08/10 04:21:47;;;;;;;8.00;7.70;;;;;;;18.63;100.00;101252.16;5052410;28;20444;-67
2022/08/10 04:24:21;;;;;;;7.50;7.20;;;;;;;18.57;100.00;101236.88;5053931;28;20501;-66
2022/08/10 04:26:47;;;;;;;7.50;7.20;;;;;;;18.76;100.00;101252.19;5049459;28;20128;-67
2022/08/10 04:29:13;;;;;;;7.28;6.97;;;;;;;18.83;100.00;101260.22;5062457;28;20575;-66
2022/08/10 04:31:41;;;;;;;7.95;7.63;;;;;;;18.85;100.00;101250.06;5069280;28;20020;-67
2022/08/10 04:34:07;;;;;;;7.68;7.38;;;;;;;18.86;100.00;101237.47;5053882;28;20040;-67
2022/08/10 04:36:34;;;;;;;7.75;7.45;;;;;;;18.65;100.00;101238.50;5053581;28;20111;-67
2022/08/10 04:39:00;;;;;;;7.80;7.50;;;;;;;18.83;100.00;101238.72;5053501;28;20032;-67
2022/08/10 04:41:26;;;;;;;7.88;7.57;;;;;;;18.94;100.00;101238.03;5053656;28;20501;-66
2022/08/10 04:43:52;;;;;;;7.80;7.50;;;;;;;19.05;100.00;101239.25;5053421;28;20551;-66
2022/08/10 04:46:17;;;;;;;7.78;7.47;;;;;;;18.91;100.00;101241.16;5053540;28;20103;-66
2022/08/10 04:48:43;;;;;;;7.75;7.45;;;;;;;18.95;100.00;101241.56;5053365;28;20041;-66
2022/08/10 04:51:15;;;;;;;7.32;7.03;;;;;;;18.99;100.00;101238.25;5054650;28;20116;-67
2022/08/10 04:53:40;;;;;;;7.22;6.93;;;;;;;19.04;100.00;101237.63;5065223;28;20021;-67
2022/08/10 04:56:07;;;;;;;7.70;7.40;;;;;;;19.17;100.00;101242.94;5053590;28;20056;-66
2022/08/10 04:58:34;;;;;;;7.50;7.20;;;;;;;19.33;100.00;101234.38;5053537;28;20029;-66
2022/08/10 05:00:59;;;;;;;7.30;7.00;;;;;;;19.36;100.00;101237.66;5051830;28;20494;-66
2022/08/10 05:03:24;;;;;;;7.65;7.35;;;;;;;19.54;100.00;101235.91;5061664;28;20149;-66
2022/08/10 05:05:50;;;;;;;7.45;7.15;;;;;;;19.55;100.00;101229.50;5057147;28;20074;-66
2022/08/10 05:08:15;;;;;;;7.78;7.47;;;;;;;19.62;100.00;101234.88;5053682;28;20124;-68
2022/08/10 05:10:41;;;;;;;7.30;7.00;;;;;;;19.60;100.00;101228.84;5053069;28;20033;-67
2022/08/10 05:13:07;;;;;;;7.60;7.30;;;;;;;19.63;100.00;101224.91;5068199;28;20076;-66
2022/08/10 05:15:33;;;;;;;7.60;7.30;;;;;;;19.70;100.00;101233.78;5053060;28;20031;-67
2022/08/10 05:17:58;;;;;;;7.53;7.22;;;;;;;19.92;100.00;101226.97;5053184;28;20112;-67
2022/08/10 05:20:24;;;;;;;7.60;7.30;;;;;;;19.74;100.00;101232.28;5053122;28;20025;-67
2022/08/10 05:22:49;;;;;;;7.82;7.53;;;;;;;19.71;100.00;101236.25;5057746;28;20476;-67
2022/08/10 05:25:17;;;;;;;7.50;7.20;;;;;;;19.84;100.00;101233.47;5060126;28;20480;-66
2022/08/10 05:27:44;;;;;;;7.50;7.20;;;;;;;20.18;100.00;101230.47;5053427;28;20124;-66
2022/08/10 05:30:15;;;;;;;7.75;7.45;;;;;;;20.08;100.00;101226.44;5052953;28;20033;-66
2022/08/10 05:32:41;;;;;;;7.80;7.50;;;;;;;20.10;100.00;101232.41;5046391;28;20032;-67
2022/08/10 05:35:07;;;;;;;7.50;7.20;;;;;;;20.13;100.00;101234.69;5045580;28;20065;-67
2022/08/10 05:37:33;;;;;;;7.57;7.28;;;;;;;20.17;100.00;101232.34;5052682;28;20473;-67
2022/08/10 05:40:01;;;;;;;7.70;7.40;;;;;;;20.31;100.00;101231.19;5053221;28;20020;-66
2022/08/10 05:42:28;;;;;;;7.50;7.20;;;;;;;20.52;100.00;101227.28;5052347;28;20077;-66
2022/08/10 05:44:54;;;;;;;7.70;7.40;;;;;;;20.47;100.00;101239.78;5048464;28;20035;-67
2022/08/10 05:47:20;;;;;;;7.53;7.22;;;;;;;20.44;100.00;101235.66;5051333;28;20021;-66
2022/08/10 05:49:49;;;;;;;7.85;7.55;;;;;;;20.65;100.00;101243.34;5052204;28;20485;-66
2022/08/10 05:52:16;;;;;;;7.70;7.40;;;;;;;21.03;100.00;101258.47;5052514;28;20033;-66
2022/08/10 05:54:43;;;;;;;7.47;7.18;;;;;;;20.49;100.00;101254.72;5048321;28;20519;-68
2022/08/10 05:57:09;;;;;;;7.55;7.25;;;;;;;20.59;100.00;101257.69;5056230;28;20031;-66
2022/08/10 05:59:40;;;;;;;7.90;7.60;;;;;;;20.85;100.00;101248.47;5054769;28;20025;-67
2022/08/10 06:02:08;;;;;;;7.90;7.60;;;;;;;20.98;100.00;101250.22;5051326;28;20063;-66
2022/08/10 06:04:39;;;;;;;7.90;7.60;;;;;;;20.77;100.00;101247.97;5057028;28;20409;-68
2022/08/10 06:07:07;;;;;;;7.57;7.28;;;;;;;20.82;100.00;101248.94;5051698;28;20124;-65
2022/08/10 06:09:35;;;;;;;7.40;7.10;;;;;;;20.98;100.00;101252.91;5052019;28;20044;-66
2022/08/10 06:12:01;;;;;;;7.35;7.05;;;;;;;20.56;100.00;101244.66;5052571;28;20028;-65
2022/08/10 06:15:05;;;;;;;7.65;7.35;;;;;;;20.52;100.00;101256.94;5042550;28;20032;-64
2022/08/10 06:17:24;;;;;;;7.32;7.03;;;;;;;20.58;100.00;101253.38;5059081;28;20069;-64
2022/08/10 06:19:50;;;;;;;7.50;7.20;;;;;;;20.41;100.00;101257.63;5051711;28;20017;-64
2022/08/10 06:22:16;;;;;;;7.40;7.10;;;;;;;20.25;100.00;101258.19;5052317;28;20028;-65
2022/08/10 06:24:42;;;;;;;7.60;7.30;;;;;;;20.29;100.00;101257.53;5051684;28;20103;-63
2022/08/10 06:27:08;;;;;;;7.60;7.30;;;;;;;20.15;100.00;101258.69;5052253;28;20435;-65
2022/08/10 06:29:36;;;;;;;7.60;7.30;;;;;;;20.05;100.00;101261.03;5051971;28;20021;-63
2022/08/10 06:32:04;;;;;;;7.35;7.05;;;;;;;20.05;100.00;101258.34;5051936;28;20434;-65
2022/08/10 06:34:36;;;;;;;7.60;7.30;;;;;;;20.11;100.00;101274.47;5052731;28;20495;-64
2022/08/10 06:37:04;;;;;;;7.65;7.35;;;;;;;20.19;100.00;101269.84;5051553;28;20041;-65
2022/08/10 06:39:30;;;;;;;7.50;7.20;;;;;;;20.15;100.00;101270.31;5052101;28;20044;-65
2022/08/10 06:42:14;;;;;;;7.75;7.45;;;;;;;20.15;100.00;101281.06;5051338;28;20404;-65
2022/08/10 06:44:54;;;;;;;7.20;6.90;;;;;;;19.87;100.00;101278.78;5046391;28;20046;-65
2022/08/10 06:47:24;;;;;;;10.00;9.50;;;;;;;19.92;100.00;101274.63;5046763;28;20614;-67
2022/08/10 06:49:54;;;;;;;8.30;7.90;;;;;;;19.82;100.00;101281.31;5040709;28;20029;-66
2022/08/10 06:52:21;;;;;;;8.93;8.52;;;;;;;20.01;100.00;101276.84;5041906;28;20028;-68
2022/08/10 06:54:51;;;;;;;8.63;8.23;;;;;;;19.92;100.00;101288.09;5046060;28;20045;-68
2022/08/10 06:57:19;;;;;;;7.65;7.35;;;;;;;19.77;100.00;101288.41;5058257;28;20043;-66
2022/08/10 06:59:46;;;;;;;8.45;8.05;;;;;;;19.71;100.00;101294.66;5053774;28;20112;-67
2022/08/10 07:02:20;;;;;;;8.40;8.00;;;;;;;19.85;100.00;101290.84;5050226;28;20028;-67
2022/08/10 07:04:58;;;;;;;8.73;8.32;;;;;;;19.75;100.00;101288.59;5050163;28;20035;-67
2022/08/10 07:07:27;;;;;;;8.35;7.95;;;;;;;19.57;100.00;101293.88;5055663;28;20024;-67
2022/08/10 07:09:55;;;;;;;8.52;8.13;;;;;;;19.19;100.00;101291.13;5050218;28;20017;-68
2022/08/10 07:12:22;;;;;;;8.20;7.80;;;;;;;19.66;100.00;101291.75;5048214;28;20021;-68
2022/08/10 07:14:50;;;;;;;7.93;7.63;;;;;;;19.26;100.00;101300.00;5046081;28;20025;-69
2022/08/10 07:17:19;;;;;;;7.88;7.57;;;;;;;19.33;100.00;101285.50;5060047;28;20032;-67
2022/08/10 07:19:48;;;;;;;7.95;7.63;;;;;;;19.52;100.00;101299.88;5047234;28;20550;-67
2022/08/10 07:22:16;;;;;;;8.48;8.07;;;;;;;19.50;100.00;101296.59;5047288;28;20028;-67
2022/08/10 07:24:43;;;;;;;8.95;8.55;;;;;;;19.67;100.00;101293.41;5051218;28;20112;-67
2022/08/10 07:27:10;;;;;;;8.20;7.80;;;;;;;19.66;100.00;101287.22;5053517;28;20112;-68
2022/08/10 07:29:38;;;;;;;8.77;8.38;;;;;;;19.47;100.00;101283.56;5048905;28;20400;-67
2022/08/10 07:32:05;;;;;;;8.50;8.10;;;;;;;19.39;100.00;101289.19;5047251;28;20518;-67
2022/08/10 07:34:34;;;;;;;8.43;8.02;;;;;;;19.70;100.00;101295.69;5047036;28;20082;-67
2022/08/10 07:37:03;;;;;;;8.68;8.27;;;;;;;19.63;100.00;101292.22;5049711;28;20020;-66
2022/08/10 07:39:35;;;;;;;8.68;8.27;;;;;;;19.67;100.00;101294.25;5050411;28;20033;-68
2022/08/10 07:42:03;;;;;;;8.35;7.95;;;;;;;19.58;100.00;101300.91;5048130;28;20386;-67
2022/08/10 07:44:31;;;;;;;9.65;9.23;;;;;;;19.49;100.00;101294.94;5049678;28;20108;-68
2022/08/10 07:47:00;;;;;;;8.68;8.27;;;;;;;19.45;100.00;101299.09;5050116;28;20032;-67
2022/08/10 07:49:33;;;;;;;7.63;7.32;;;;;;;19.56;100.00;101300.28;5049842;28;20428;-67
2022/08/10 07:51:59;;;;;;;7.88;7.57;;;;;;;19.49;100.00;101291.41;5053824;28;20094;-66
2022/08/10 07:54:28;;;;;;;8.70;8.30;;;;;;;19.37;100.00;101299.31;5051011;28;20497;-67
2022/08/10 07:57:00;;;;;;;8.48;8.07;;;;;;;19.32;100.00;101307.22;5044964;28;20033;-67
2022/08/10 07:59:50;;;;;;;8.82;8.43;;;;;;;19.22;100.00;101307.66;5052092;28;20033;-67
2022/08/10 08:02:49;;;;;;;9.13;8.73;;;;;;;19.19;100.00;101297.34;5049540;28;20033;-67
2022/08/10 08:05:18;;;;;;;8.43;8.02;;;;;;;18.96;100.00;101292.47;5050304;28;20036;-67
2022/08/10 08:07:45;;;;;;;8.63;8.23;;;;;;;18.95;100.00;101296.19;5040210;28;20028;-67
2022/08/10 08:10:12;;;;;;;8.13;7.72;;;;;;;19.08;100.00;101289.09;5049995;28;20033;-68
2022/08/10 08:12:39;;;;;;;9.10;8.70;;;;;;;18.88;100.00;101295.38;5049472;28;20029;-68
2022/08/10 08:15:08;;;;;;;8.32;7.93;;;;;;;18.91;100.00;101296.81;5054306;28;20025;-68
2022/08/10 08:17:35;;;;;;;8.50;8.10;;;;;;;18.88;100.00;101290.00;5050064;28;20847;-69
2022/08/10 08:20:02;;;;;;;8.35;7.95;;;;;;;18.76;100.00;101287.13;5058444;28;20089;-68
2022/08/10 08:22:28;;;;;;;8.45;8.05;;;;;;;18.85;100.00;101289.59;5050143;28;20496;-69
2022/08/10 08:24:55;;;;;;;7.80;7.50;;;;;;;18.83;100.00;101294.34;5054176;28;20166;-68
2022/08/10 08:27:22;;;;;;;8.80;8.40;;;;;;;18.85;100.00;101289.59;5057677;28;20025;-69
2022/08/10 08:29:50;;;;;;;8.60;8.20;;;;;;;18.83;100.00;101291.66;5068186;28;20040;-69
2022/08/10 08:32:21;;;;;;;8.60;8.20;;;;;;;18.75;100.00;101290.03;5055208;28;20460;-70
2022/08/10 08:34:48;;;;;;;8.48;8.07;;;;;;;18.73;100.00;101289.41;5051581;28;20488;-69
2022/08/10 08:37:17;;;;;;;8.95;8.55;;;;;;;18.80;100.00;101286.69;5049644;28;20017;-69
2022/08/10 08:39:44;;;;;;;8.18;7.78;;;;;;;18.95;100.00;101285.44;5050056;28;20037;-69
2022/08/10 08:42:31;;;;;;;8.60;8.20;;;;;;;18.94;100.00;101288.31;5053983;28;20148;-67
2022/08/10 08:45:05;;;;;;;8.60;8.20;;;;;;;18.94;100.00;101288.31;5046665;28;20091;-69
2022/08/10 08:47:30;;;;;;;7.88;7.57;;;;;;;18.93;100.00;101295.56;5053028;28;20093;-69
2022/08/10 08:50:13;;;;;;;7.88;7.57;;;;;;;19.13;100.00;101300.88;5050134;28;20040;-68
2022/08/10 08:53:13;;;;;;;8.18;7.78;;;;;;;19.01;100.00;101295.31;5046043;28;20036;-68
2022/08/10 08:55:53;;;;;;;8.65;8.25;;;;;;;18.96;100.00;101303.22;5053586;28;20036;-69
2022/08/10 08:58:28;;;;;;;8.25;7.85;;;;;;;19.21;100.00;101306.03;5048094;28;20025;-67
2022/08/10 09:01:02;;;;;;;8.68;8.27;;;;;;;19.40;100.00;101306.16;5066528;28;20183;-68
2022/08/10 09:03:30;;;;;;;8.20;7.80;;;;;;;19.39;100.00;101310.72;5052456;28;20107;-68
2022/08/10 09:06:21;;;;;;;8.50;8.10;;;;;;;19.22;100.00;101310.34;5054572;28;20035;-68
2022/08/10 09:09:27;;;;;;;8.52;8.13;;;;;;;19.13;100.00;101302.75;5047627;28;20424;-69
2022/08/10 09:11:59;;;;;;;8.63;8.23;;;;;;;19.37;100.00;101312.78;5062748;28;20033;-68
2022/08/10 09:14:39;;;;;;;8.63;8.23;;;;;;;19.28;100.00;101312.19;5057183;28;20063;-67
2022/08/10 09:17:31;;;;;;;8.30;7.90;;;;;;;19.34;100.00;101310.53;5053353;28;20313;-69
2022/08/10 09:20:28;;;;;;;8.65;8.25;;;;;;;19.49;100.00;101311.09;5055334;28;20033;-68
2022/08/10 09:23:00;;;;;;;8.82;8.43;;;;;;;19.72;100.00;101305.19;5048989;28;20040;-67
2022/08/10 09:25:33;;;;;;;8.75;8.35;;;;;;;19.52;100.00;101304.44;5060538;28;20032;-67
2022/08/10 09:28:03;;;;;;;8.25;7.85;;;;;;;19.35;100.00;101304.09;5052152;28;20037;-68
2022/08/10 09:30:43;;;;;;;8.32;7.93;;;;;;;19.56;100.00;101308.34;5049634;28;20198;-67
2022/08/10 09:33:18;;;;;;;8.18;7.80;;;;;;;19.45;100.00;101312.53;5048632;28;20044;-68
2022/08/10 09:36:14;;;;;;;8.60;8.20;;;;;;;19.55;100.00;101312.09;5057981;28;20036;-68
2022/08/10 09:38:59;;;;;;;8.50;8.10;;;;;;;19.65;100.00;101312.47;5038739;28;20056;-69
2022/08/10 09:41:50;;;;;;;8.65;8.25;;;;;;;19.60;100.00;101306.91;5054474;28;20058;-68
2022/08/10 09:44:46;;;;;;;8.75;8.35;;;;;;;19.59;100.00;101305.25;5036073;28;20513;-68
2022/08/10 09:47:43;;;;;;;8.05;7.70;;;;;;;19.55;100.00;101310.22;5062156;28;20028;-69
2022/08/10 09:50:21;;;;;;;8.23;7.82;;;;;;;19.96;100.00;101314.34;5043836;28;20535;-69
2022/08/10 09:53:04;;;;;;;8.57;8.18;;;;;;;19.78;100.00;101308.91;5049777;28;20104;-69
2022/08/10 09:55:51;;;;;;;8.52;8.13;;;;;;;20.28;100.00;101304.41;5057227;28;20024;-68
2022/08/10 09:58:26;;;;;;;8.70;8.30;;;;;;;20.27;100.00;101301.91;5050552;28;20036;-67
2022/08/10 10:01:19;;;;;;;8.40;8.00;;;;;;;20.43;100.00;101302.19;5049714;28;20040;-68
2022/08/10 10:04:03;;;;;;;8.50;8.10;;;;;;;20.18;100.00;101298.66;5047058;28;20028;-69
2022/08/10 10:06:42;;;;;;;8.43;8.02;;;;;;;20.09;100.00;101303.50;5038542;28;20403;-67
2022/08/10 10:09:29;;;;;;;8.20;7.80;;;;;;;19.94;100.00;101296.78;5047743;28;20032;-68
2022/08/10 10:12:05;;;;;;;7.80;7.50;;;;;;;19.77;100.00;101299.16;5036335;28;20518;-68
2022/08/10 10:15:24;;;;;;;8.65;8.25;;;;;;;19.95;100.00;101296.56;5054697;28;20037;-68
2022/08/10 10:18:05;;;;;;;8.45;8.05;;;;;;;20.05;100.00;101306.84;5025590;28;20051;-69
2022/08/10 10:20:37;;;;;;;8.23;7.82;;;;;;;20.01;100.00;101300.25;5052271;28;20136;-68
2022/08/10 10:23:34;;;;;;;8.43;8.02;;;;;;;20.01;100.00;101308.31;5052600;28;20518;-68
2022/08/10 10:26:17;;;;;;;8.75;8.35;;;;;;;20.31;100.00;101305.81;5055225;28;20024;-68
2022/08/10 10:29:01;;;;;;;8.40;8.00;;;;;;;20.08;100.00;101299.16;5051641;28;20037;-68
2022/08/10 10:32:08;;;;;;;8.85;8.45;;;;;;;20.48;100.00;101306.09;5051719;28;20633;-68
2022/08/10 10:35:08;;;;;;;8.68;8.27;;;;;;;20.48;100.00;101296.16;5037513;28;20518;-69
2022/08/10 10:37:36;;;;;;;9.13;8.73;;;;;;;20.58;100.00;101299.19;5051527;28;20029;-67
2022/08/10 10:40:02;;;;;;;8.80;8.40;;;;;;;20.77;100.00;101300.03;5053525;28;20365;-66
2022/08/10 10:42:42;;;;;;;8.65;8.25;;;;;;;21.02;100.00;101296.47;5046997;28;20670;-68
2022/08/10 10:45:17;;;;;;;8.70;8.30;;;;;;;21.11;100.00;101285.13;5059745;28;20039;-68
2022/08/10 10:48:01;;;;;;;8.45;8.05;;;;;;;20.56;100.00;101290.47;5039404;28;20043;-69
2022/08/10 10:51:04;;;;;;;8.50;8.10;;;;;;;21.00;100.00;101296.66;5052428;28;20029;-69
2022/08/10 10:54:01;;;;;;;8.00;7.70;;;;;;;21.15;100.00;101291.75;5045767;28;20108;-69
2022/08/10 10:56:57;;;;;;;7.90;7.60;;;;;;;21.03;100.00;101290.00;5043557;28;20124;-69
2022/08/10 10:59:36;;;;;;;8.93;8.52;;;;;;;21.03;100.00;101290.84;5046136;28;20025;-69
2022/08/10 11:02:39;;;;;;;8.02;7.72;;;;;;;20.70;100.00;101285.78;5035008;28;20154;-69
2022/08/10 11:05:18;;;;;;;8.23;7.82;;;;;;;21.07;100.00;101283.91;5041744;28;20036;-69
2022/08/10 11:08:15;;;;;;;8.23;7.82;;;;;;;21.14;100.00;101287.38;5044508;28;20037;-68
2022/08/10 11:11:17;;;;;;;8.45;8.05;;;;;;;21.32;100.00;101289.28;5046445;28;20417;-69
2022/08/10 11:14:14;;;;;;;8.00;7.70;;;;;;;21.57;100.00;101281.03;5051508;28;20488;-68
2022/08/10 11:16:47;;;;;;;8.02;7.72;;;;;;;20.92;100.00;101287.00;5051647;28;20036;-67
2022/08/10 11:19:19;;;;;;;8.20;7.82;;;;;;;21.54;100.00;101286.09;5051724;28;20033;-69
2022/08/10 11:22:00;;;;;;;8.30;7.90;;;;;;;21.69;100.00;101284.59;5044092;28;20043;-69
2022/08/10 11:24:41;;;;;;;8.57;8.18;;;;;;;21.50;100.00;101283.00;5050538;28;20539;-68
2022/08/10 11:27:31;;;;;;;8.15;7.82;;;;;;;21.90;100.00;101274.34;5051111;28;20025;-68
2022/08/10 11:30:05;;;;;;;8.38;7.97;;;;;;;21.75;100.00;101281.00;5051154;28;20025;-69
2022/08/10 11:33:06;;;;;;;8.52;8.13;;;;;;;21.99;100.00;101281.06;5048892;28;20040;-68
2022/08/10 11:35:55;;;;;;;8.73;8.32;;;;;;;21.91;100.00;101276.00;5047863;28;20052;-69
2022/08/10 11:38:36;;;;;;;8.48;8.07;;;;;;;22.17;100.00;101272.06;5045010;28;20029;-69
2022/08/10 11:41:27;;;;;;;7.90;7.60;;;;;;;22.03;100.00;101266.00;5051011;28;20957;-69
2022/08/10 11:44:23;;;;;;;8.48;8.07;;;;;;;21.94;100.00;101268.22;5050864;28;20023;-69
2022/08/10 11:47:02;;;;;;;8.40;8.00;;;;;;;22.07;100.00;101268.03;5053498;28;20524;-68